createdAt,value
2022-08-17T00:00:42.590Z,17.13
2022-08-17T00:03:13.617Z,17.28
2022-08-17T00:05:45.609Z,17.05
2022-08-17T00:08:17.808Z,17.14
2022-08-17T00:10:50.254Z,17.45
2022-08-17T00:13:21.503Z,17.36
2022-08-17T00:15:50.346Z,17.45
2022-08-17T00:19:06.459Z,17.45
2022-08-17T00:21:10.271Z,17.33
2022-08-17T00:23:46.214Z,17.19
2022-08-17T00:26:43.716Z,17.03
2022-08-17T00:29:09.201Z,16.86
2022-08-17T00:31:38.230Z,16.99
2022-08-17T00:34:08.924Z,17.03
2022-08-17T00:36:38.120Z,17.24
2022-08-17T00:39:08.034Z,17.21
2022-08-17T00:41:36.819Z,17.04
2022-08-17T00:44:12.486Z,16.95
2022-08-17T00:46:43.008Z,17.10
2022-08-17T00:49:14.202Z,16.98
2022-08-17T00:51:47.862Z,17.01
2022-08-17T00:54:24.067Z,17.24
2022-08-17T00:57:00.171Z,17.35
2022-08-17T00:59:32.910Z,17.07
2022-08-17T01:02:10.315Z,17.40
2022-08-17T01:04:40.026Z,17.39
2022-08-17T01:07:11.358Z,17.01
2022-08-17T01:09:42.852Z,17.22
2022-08-17T01:12:13.480Z,17.17
2022-08-17T01:14:42.663Z,17.26
2022-08-17T01:17:12.288Z,17.38
2022-08-17T01:19:43.179Z,17.36
2022-08-17T01:22:21.932Z,17.36
2022-08-17T01:24:54.419Z,17.37
2022-08-17T01:27:23.490Z,17.39
2022-08-17T01:29:59.000Z,17.37
2022-08-17T01:32:28.866Z,17.29
2022-08-17T01:35:00.867Z,17.15
2022-08-17T01:37:34.560Z,17.20
2022-08-17T01:40:06.987Z,17.19
2022-08-17T01:42:41.089Z,17.18
2022-08-17T01:45:13.567Z,17.06
2022-08-17T01:47:42.297Z,16.81
2022-08-17T01:50:14.930Z,17.03
2022-08-17T01:52:46.690Z,17.06
2022-08-17T01:55:18.480Z,16.98
2022-08-17T01:57:47.384Z,16.98
2022-08-17T02:00:16.411Z,16.96
2022-08-17T02:02:45.924Z,16.99
2022-08-17T02:05:14.622Z,17.04
2022-08-17T02:07:59.821Z,17.05
2022-08-17T02:10:33.988Z,17.01
2022-08-17T02:13:04.400Z,17.16
2022-08-17T02:15:34.795Z,17.08
2022-08-17T02:18:03.553Z,17.21
2022-08-17T02:20:41.750Z,17.22
2022-08-17T02:23:14.565Z,17.21
2022-08-17T02:25:45.764Z,17.13
2022-08-17T02:28:15.804Z,16.96
2022-08-17T02:30:59.096Z,16.76
2022-08-17T02:33:41.831Z,16.82
2022-08-17T02:36:11.814Z,16.96
2022-08-17T02:38:42.558Z,17.10
2022-08-17T02:41:13.217Z,16.92
2022-08-17T02:43:42.048Z,17.15
2022-08-17T02:46:11.283Z,16.98
2022-08-17T02:48:40.105Z,17.00
2022-08-17T02:51:09.309Z,17.00
2022-08-17T02:53:37.868Z,16.94
2022-08-17T02:56:08.373Z,16.83
2022-08-17T02:58:37.054Z,16.79
2022-08-17T03:01:07.517Z,16.92
2022-08-17T03:03:36.909Z,16.78
2022-08-17T03:06:07.802Z,16.78
2022-08-17T03:08:37.636Z,16.80
2022-08-17T03:11:08.005Z,16.78
2022-08-17T03:13:36.500Z,17.00
2022-08-17T03:16:05.639Z,16.52
2022-08-17T03:18:34.243Z,16.68
2022-08-17T03:21:04.605Z,16.59
2022-08-17T03:23:33.904Z,16.78
2022-08-17T03:26:02.928Z,16.61
2022-08-17T03:28:33.531Z,16.63
2022-08-17T03:31:02.534Z,16.77
2022-08-17T03:33:31.642Z,16.86
2022-08-17T03:36:00.513Z,16.77
2022-08-17T03:38:29.115Z,16.76
2022-08-17T03:41:08.095Z,16.77
2022-08-17T03:43:37.999Z,16.91
2022-08-17T03:46:28.201Z,16.54
2022-08-17T03:49:21.451Z,16.95
2022-08-17T03:52:07.717Z,16.91
2022-08-17T03:54:53.857Z,17.07
2022-08-17T03:57:22.619Z,16.97
2022-08-17T03:59:52.686Z,16.99
2022-08-17T04:02:25.072Z,16.90
2022-08-17T04:04:54.339Z,16.97
2022-08-17T04:07:26.123Z,16.97
2022-08-17T04:09:54.787Z,16.91
2022-08-17T04:12:31.158Z,16.94
2022-08-17T04:15:01.346Z,16.65
2022-08-17T04:17:30.661Z,16.88
2022-08-17T04:19:59.366Z,16.74
2022-08-17T04:22:32.681Z,16.70
2022-08-17T04:25:09.480Z,16.70
2022-08-17T04:27:37.976Z,16.57
2022-08-17T04:30:09.725Z,16.64
2022-08-17T04:33:05.221Z,16.78
2022-08-17T04:35:38.835Z,16.46
2022-08-17T04:38:08.536Z,16.49
2022-08-17T04:40:55.046Z,16.50
2022-08-17T04:43:25.239Z,16.47
2022-08-17T04:45:58.081Z,16.20
2022-08-17T04:48:35.299Z,16.56
2022-08-17T04:51:10.190Z,16.65
2022-08-17T04:53:40.563Z,16.68
2022-08-17T04:56:11.790Z,16.71
2022-08-17T04:58:44.803Z,16.79
2022-08-17T05:01:15.620Z,16.72
2022-08-17T05:03:44.804Z,16.70
2022-08-17T05:06:13.392Z,16.52
2022-08-17T05:08:42.128Z,16.61
2022-08-17T05:11:10.714Z,16.54
2022-08-17T05:13:39.690Z,16.31
2022-08-17T05:16:09.285Z,16.58
2022-08-17T05:18:39.705Z,16.81
2022-08-17T05:21:08.921Z,16.55
2022-08-17T05:23:42.823Z,16.91
2022-08-17T05:26:20.412Z,16.95
2022-08-17T05:28:59.629Z,16.97
2022-08-17T05:31:30.115Z,16.95
2022-08-17T05:34:00.030Z,16.92
2022-08-17T05:36:41.883Z,16.98
2022-08-17T05:39:16.076Z,17.00
2022-08-17T05:41:46.765Z,16.97
2022-08-17T05:44:15.448Z,16.84
2022-08-17T05:46:48.865Z,16.64
2022-08-17T05:49:24.727Z,16.86
2022-08-17T05:52:09.531Z,16.69
2022-08-17T05:54:50.883Z,16.35
2022-08-17T05:57:43.417Z,16.59
2022-08-17T06:00:26.483Z,16.16
2022-08-17T06:03:23.707Z,16.61
2022-08-17T06:06:25.325Z,16.52
2022-08-17T06:09:14.929Z,16.41
2022-08-17T06:11:53.475Z,16.59
2022-08-17T06:14:49.176Z,16.34
2022-08-17T06:17:23.251Z,16.52
2022-08-17T06:19:55.416Z,16.69
2022-08-17T06:22:33.600Z,16.71
2022-08-17T06:25:10.234Z,16.87
2022-08-17T06:27:44.966Z,17.05
2022-08-17T06:30:16.800Z,17.01
2022-08-17T06:32:47.827Z,16.96
2022-08-17T06:35:19.096Z,17.09
2022-08-17T06:38:05.982Z,17.43
2022-08-17T06:41:00.475Z,17.58
2022-08-17T06:43:47.455Z,17.67
2022-08-17T06:46:23.452Z,17.34
2022-08-17T06:49:07.651Z,17.83
2022-08-17T06:51:40.609Z,17.84
2022-08-17T06:54:20.677Z,17.93
2022-08-17T06:56:57.554Z,17.73
2022-08-17T06:59:55.257Z,17.41
2022-08-17T07:02:51.529Z,17.80
2022-08-17T07:05:25.011Z,17.94
2022-08-17T07:08:04.705Z,18.01
2022-08-17T07:10:42.815Z,18.19
2022-08-17T07:13:25.661Z,18.36
2022-08-17T07:16:00.759Z,18.51
2022-08-17T07:18:33.216Z,18.69
2022-08-17T07:21:17.983Z,18.97
2022-08-17T07:24:02.246Z,19.33
2022-08-17T07:26:32.327Z,19.51
2022-08-17T07:29:02.484Z,19.51
2022-08-17T07:31:33.848Z,19.94
2022-08-17T07:34:08.535Z,19.91
2022-08-17T07:36:37.395Z,19.55
2022-08-17T07:39:06.576Z,20.33
2022-08-17T07:41:53.253Z,20.40
2022-08-17T07:44:28.152Z,21.21
2022-08-17T07:47:14.803Z,21.51
2022-08-17T07:49:46.439Z,21.85
2022-08-17T07:52:51.166Z,22.00
2022-08-17T07:55:29.802Z,22.13
2022-08-17T07:58:00.794Z,22.68
2022-08-17T08:00:32.111Z,22.82
2022-08-17T08:03:06.164Z,23.41
2022-08-17T08:05:50.391Z,23.87
2022-08-17T08:08:39.317Z,24.66
2022-08-17T08:11:12.062Z,28.07
2022-08-17T08:13:45.886Z,32.85
2022-08-17T08:16:22.775Z,33.23
2022-08-17T08:18:56.837Z,35.01
2022-08-17T08:21:45.807Z,37.33
2022-08-17T08:24:32.833Z,38.02
2022-08-17T08:27:11.767Z,38.92
2022-08-17T08:29:50.274Z,40.18
2022-08-17T08:32:23.402Z,39.27
2022-08-17T08:35:03.654Z,37.68
2022-08-17T08:37:43.817Z,39.72
2022-08-17T08:40:30.214Z,39.86
2022-08-17T08:43:10.260Z,35.39
2022-08-17T08:45:52.860Z,33.96
2022-08-17T08:48:56.346Z,33.16
2022-08-17T08:51:37.678Z,31.29
2022-08-17T08:54:15.800Z,28.23
2022-08-17T08:57:21.595Z,28.43
2022-08-17T08:59:57.749Z,26.79
2022-08-17T09:02:46.992Z,26.77
2022-08-17T09:05:30.765Z,26.63
2022-08-17T09:08:06.768Z,26.06
2022-08-17T09:10:49.622Z,25.30
2022-08-17T09:13:25.328Z,25.33
2022-08-17T09:15:59.293Z,26.03
2022-08-17T09:19:00.389Z,26.77
2022-08-17T09:21:33.726Z,28.09
2022-08-17T09:24:12.897Z,28.82
2022-08-17T09:26:46.988Z,28.15
2022-08-17T09:29:17.235Z,26.91
2022-08-17T09:31:53.571Z,26.56
2022-08-17T09:34:33.382Z,27.21
2022-08-17T09:37:17.410Z,27.78
2022-08-17T09:39:53.061Z,29.00
2022-08-17T09:42:28.384Z,31.20
2022-08-17T09:45:09.184Z,32.73
2022-08-17T09:47:45.651Z,31.81
2022-08-17T09:51:01.598Z,30.96
2022-08-17T09:53:11.041Z,30.24
2022-08-17T09:55:58.103Z,30.26
2022-08-17T09:58:39.038Z,29.60
2022-08-17T10:01:20.570Z,31.43
2022-08-17T10:04:09.776Z,34.59
2022-08-17T10:06:50.294Z,37.56
2022-08-17T10:09:27.308Z,38.59
2022-08-17T10:12:20.521Z,38.66
2022-08-17T10:15:07.749Z,38.47
2022-08-17T10:17:46.723Z,37.00
2022-08-17T10:20:21.732Z,32.82
2022-08-17T10:23:15.039Z,31.68
2022-08-17T10:26:16.720Z,32.34
2022-08-17T10:28:52.754Z,32.63
2022-08-17T10:31:35.695Z,29.83
2022-08-17T10:34:42.008Z,30.78
2022-08-17T10:37:32.595Z,31.40
2022-08-17T10:40:20.497Z,31.07
2022-08-17T10:42:55.628Z,34.09
2022-08-17T10:45:28.455Z,31.42
2022-08-17T10:48:06.163Z,30.13
2022-08-17T10:50:49.688Z,30.89
2022-08-17T10:53:54.912Z,33.85
2022-08-17T10:56:44.160Z,34.07
2022-08-17T10:59:52.456Z,33.32
2022-08-17T11:02:28.211Z,30.78
2022-08-17T11:05:10.053Z,29.63
2022-08-17T11:07:54.081Z,27.17
2022-08-17T11:10:46.445Z,27.59
2022-08-17T11:13:35.788Z,30.85
2022-08-17T11:16:22.037Z,33.72
2022-08-17T11:19:19.269Z,35.66
2022-08-17T11:22:07.994Z,34.26
2022-08-17T11:24:38.754Z,32.24
2022-08-17T11:27:13.665Z,32.19
2022-08-17T11:29:58.063Z,33.58
2022-08-17T11:32:37.132Z,34.00
2022-08-17T11:35:22.392Z,32.59
2022-08-17T11:38:03.048Z,30.96
2022-08-17T11:40:44.657Z,30.58
2022-08-17T11:43:50.350Z,30.48
2022-08-17T11:46:54.168Z,30.04
2022-08-17T11:49:54.673Z,30.32
2022-08-17T11:52:42.204Z,29.75
2022-08-17T11:55:54.281Z,30.00
2022-08-17T11:58:41.261Z,31.84
2022-08-17T12:01:13.572Z,30.72
2022-08-17T12:03:55.826Z,29.30
2022-08-17T12:06:45.391Z,28.86
2022-08-17T12:09:18.798Z,28.56
2022-08-17T12:12:01.666Z,28.20
2022-08-17T12:17:39.542Z,29.60
2022-08-17T12:20:17.354Z,29.55
2022-08-17T12:22:57.712Z,29.91
2022-08-17T12:25:34.214Z,29.62
2022-08-17T12:28:06.540Z,29.00
2022-08-17T12:30:37.967Z,28.93
2022-08-17T12:33:25.061Z,28.73
2022-08-17T12:36:04.205Z,28.33
2022-08-17T12:38:36.321Z,28.11
2022-08-17T12:41:21.246Z,28.38
2022-08-17T12:44:01.781Z,28.42
2022-08-17T12:46:33.758Z,28.96
2022-08-17T12:49:18.574Z,28.98
2022-08-17T12:51:49.286Z,28.40
2022-08-17T12:54:31.597Z,27.89
2022-08-17T12:57:06.714Z,27.41
2022-08-17T12:59:35.377Z,27.22
2022-08-17T13:02:04.142Z,27.75
2022-08-17T13:04:33.281Z,28.25
2022-08-17T13:07:03.319Z,28.56
2022-08-17T13:09:35.830Z,28.49
2022-08-17T13:12:09.577Z,28.93
2022-08-17T13:14:38.702Z,28.60
2022-08-17T13:17:13.287Z,28.08
2022-08-17T13:19:51.472Z,28.25
2022-08-17T13:22:24.846Z,28.87
2022-08-17T13:25:02.311Z,29.01
2022-08-17T13:27:32.353Z,28.18
2022-08-17T13:30:03.992Z,28.23
2022-08-17T13:32:43.616Z,27.75
2022-08-17T13:35:48.302Z,27.80
2022-08-17T13:38:41.275Z,28.44
2022-08-17T13:41:29.909Z,29.01
2022-08-17T13:43:58.503Z,28.48
2022-08-17T13:46:32.378Z,29.09
2022-08-17T13:49:04.456Z,29.46
2022-08-17T13:51:36.329Z,29.37
2022-08-17T13:54:24.598Z,28.49
2022-08-17T13:57:02.445Z,28.71
2022-08-17T13:59:55.268Z,28.36
2022-08-17T14:02:26.106Z,28.31
2022-08-17T14:05:00.753Z,28.35
2022-08-17T14:07:35.259Z,28.38
2022-08-17T14:10:12.269Z,28.26
2022-08-17T14:12:43.748Z,28.07
2022-08-17T14:15:14.353Z,28.06
2022-08-17T14:17:42.904Z,28.12
2022-08-17T14:20:13.726Z,28.12
2022-08-17T14:22:46.381Z,27.93
2022-08-17T14:25:19.816Z,28.05
2022-08-17T14:27:52.959Z,27.90
2022-08-17T14:30:25.647Z,27.85
2022-08-17T14:32:58.239Z,27.97
2022-08-17T14:35:28.254Z,28.01
2022-08-17T14:37:57.132Z,27.87
2022-08-17T14:40:28.236Z,27.66
2022-08-17T14:42:58.088Z,27.85
2022-08-17T14:45:33.016Z,27.40
2022-08-17T14:48:05.875Z,27.46
2022-08-17T14:50:35.942Z,27.96
2022-08-17T14:53:06.091Z,27.58
2022-08-17T14:55:40.969Z,27.69
2022-08-17T14:58:10.302Z,27.68
2022-08-17T15:00:40.015Z,27.66
2022-08-17T15:03:08.508Z,27.54
2022-08-17T15:05:39.128Z,27.51
2022-08-17T15:08:08.461Z,27.29
2022-08-17T15:10:37.391Z,27.28
2022-08-17T15:13:16.391Z,27.27
2022-08-17T15:15:45.040Z,27.15
2022-08-17T15:18:13.702Z,27.19
2022-08-17T15:20:43.048Z,27.25
2022-08-17T15:23:14.278Z,26.91
2022-08-17T15:25:43.986Z,26.91
2022-08-17T15:28:13.919Z,27.19
2022-08-17T15:30:44.999Z,26.43
2022-08-17T15:33:18.742Z,26.84
2022-08-17T15:35:51.393Z,26.59
2022-08-17T15:38:19.874Z,26.47
2022-08-17T15:40:50.460Z,26.56
2022-08-17T15:43:27.705Z,27.04
2022-08-17T15:46:01.926Z,26.96
2022-08-17T15:48:42.352Z,27.04
2022-08-17T15:51:13.325Z,26.98
2022-08-17T15:53:43.232Z,26.62
2022-08-17T15:56:13.794Z,26.82
2022-08-17T15:58:46.810Z,26.58
2022-08-17T16:02:21.584Z,26.43
2022-08-17T16:04:07.168Z,26.37
2022-08-17T16:06:54.823Z,26.12
2022-08-17T16:09:23.426Z,25.88
2022-08-17T16:11:55.074Z,26.35
2022-08-17T16:14:32.546Z,26.38
2022-08-17T16:17:03.685Z,26.25
2022-08-17T16:19:32.692Z,26.17
2022-08-17T16:22:01.765Z,26.07
2022-08-17T16:24:30.356Z,26.22
2022-08-17T16:26:59.211Z,26.41
2022-08-17T16:29:29.654Z,26.35
2022-08-17T16:31:58.747Z,26.10
2022-08-17T16:34:27.261Z,25.96
2022-08-17T16:36:56.640Z,26.22
2022-08-17T16:39:27.353Z,25.96
2022-08-17T16:41:56.387Z,26.01
2022-08-17T16:44:26.029Z,26.14
2022-08-17T16:46:56.151Z,25.89
2022-08-17T16:49:42.366Z,25.86
2022-08-17T16:52:33.062Z,25.53
2022-08-17T16:55:04.298Z,25.61
2022-08-17T16:57:47.484Z,25.53
2022-08-17T17:00:34.131Z,25.69
2022-08-17T17:03:19.743Z,25.42
2022-08-17T17:06:18.616Z,25.76
2022-08-17T17:09:06.161Z,25.80
2022-08-17T17:13:02.369Z,25.87
2022-08-17T20:00:27.261Z,21.71
2022-08-17T20:03:05.629Z,21.91
2022-08-17T20:06:08.518Z,21.87
2022-08-17T20:08:30.654Z,21.47
2022-08-17T20:11:03.891Z,21.22
2022-08-17T20:13:40.030Z,21.18
2022-08-17T20:16:11.852Z,21.66
2022-08-17T20:18:51.568Z,21.57
2022-08-17T20:21:26.179Z,21.53
2022-08-17T20:24:01.062Z,21.46
2022-08-17T20:26:49.223Z,21.04
2022-08-17T20:29:39.824Z,21.14
2022-08-17T20:32:22.414Z,21.21
2022-08-17T20:35:06.900Z,21.27
2022-08-17T20:37:38.358Z,20.93
2022-08-17T20:40:21.480Z,21.33
2022-08-17T20:42:50.339Z,21.34
2022-08-17T20:45:52.957Z,21.33
2022-08-17T20:48:38.778Z,20.97
2022-08-17T20:51:23.944Z,21.02
2022-08-17T20:54:31.537Z,20.88
2022-08-17T20:57:01.799Z,20.95
2022-08-17T21:00:14.856Z,21.38
2022-08-17T21:02:45.788Z,21.25
2022-08-17T21:05:38.765Z,20.81
2022-08-17T21:08:16.725Z,21.06
2022-08-17T21:10:48.257Z,20.97
2022-08-17T21:13:56.915Z,21.06
2022-08-17T21:16:41.580Z,21.12
2022-08-17T21:19:22.601Z,21.08
2022-08-17T21:22:07.654Z,20.79
2022-08-17T21:24:48.921Z,21.01
2022-08-17T21:27:30.524Z,20.57
2022-08-17T21:30:22.033Z,20.75
2022-08-17T21:33:25.240Z,20.77
2022-08-17T21:36:15.798Z,20.43
2022-08-17T21:39:04.243Z,20.33
2022-08-17T21:41:35.989Z,20.55
2022-08-17T21:44:31.583Z,20.04
2022-08-17T21:47:16.073Z,20.36
2022-08-17T21:49:44.825Z,20.41
2022-08-17T21:52:15.857Z,20.12
2022-08-17T21:54:51.998Z,20.56
2022-08-17T21:57:23.453Z,20.66
2022-08-17T22:00:15.704Z,20.48
2022-08-17T22:02:44.661Z,20.09
2022-08-17T22:05:16.982Z,20.16
2022-08-17T22:07:47.841Z,19.83
2022-08-17T22:10:32.985Z,19.91
2022-08-17T22:13:16.854Z,20.03
2022-08-17T22:15:48.125Z,20.02
2022-08-17T22:18:21.526Z,19.42
2022-08-17T22:20:52.768Z,19.48
2022-08-17T22:23:45.092Z,19.22
2022-08-17T22:26:17.695Z,19.34
2022-08-17T22:28:49.089Z,18.90
2022-08-17T22:31:20.010Z,19.19
2022-08-17T22:33:51.357Z,18.80
2022-08-17T22:36:30.490Z,18.68
2022-08-17T22:39:01.813Z,18.57
2022-08-17T22:41:46.674Z,18.43
2022-08-17T22:44:19.386Z,18.49
2022-08-17T22:46:56.909Z,18.48
2022-08-17T22:49:32.285Z,18.76
2022-08-17T22:52:06.906Z,17.95
2022-08-17T22:54:49.531Z,18.38
2022-08-17T22:57:41.611Z,18.04
2022-08-17T23:00:37.480Z,17.86
2022-08-17T23:03:16.555Z,17.98
2022-08-17T23:05:48.571Z,18.40
2022-08-17T23:08:21.542Z,18.45
2022-08-17T23:10:50.733Z,18.47
2022-08-17T23:14:33.371Z,17.81
2022-08-17T23:17:33.885Z,18.28
2022-08-17T23:20:26.938Z,17.62
2022-08-17T23:22:57.453Z,17.25
2022-08-17T23:25:31.808Z,17.15
2022-08-17T23:28:02.586Z,17.61
2022-08-17T23:30:35.540Z,17.44
2022-08-17T23:33:07.122Z,17.52
2022-08-17T23:35:38.913Z,17.23
2022-08-17T23:38:10.500Z,17.58
2022-08-17T23:40:39.958Z,17.87
2022-08-17T23:43:16.646Z,17.73
2022-08-17T23:45:55.717Z,17.45
2022-08-17T23:48:28.597Z,17.61
2022-08-17T23:51:10.025Z,17.63
2022-08-17T23:53:42.619Z,17.47
2022-08-17T23:56:15.452Z,17.31
2022-08-17T23:58:45.148Z,16.85
